sensor_id;sensor_type;location;lat;lon;timestamp;pressure;altitude;pressure_sealevel;temperature;humidity
77351;BME280;66420;50.246;14.320;2023-01-29T00:02:21;100875.47;;;-2.78;69.81
77351;BME280;66420;50.246;14.320;2023-01-29T00:05:06;100877.13;;;-2.77;69.51
77351;BME280;66420;50.246;14.320;2023-01-29T00:07:51;100876.28;;;-2.77;69.21
77351;BME280;66420;50.246;14.320;2023-01-29T00:10:35;100879.16;;;-2.79;68.67
77351;BME280;66420;50.246;14.320;2023-01-29T00:13:20;100862.19;;;-2.86;69.45
77351;BME280;66420;50.246;14.320;2023-01-29T00:16:06;100859.50;;;-2.86;69.49
77351;BME280;66420;50.246;14.320;2023-01-29T00:18:50;100855.56;;;-2.90;69.15
77351;BME280;66420;50.246;14.320;2023-01-29T00:21:35;100863.69;;;-2.98;69.57
77351;BME280;66420;50.246;14.320;2023-01-29T00:24:20;100865.72;;;-3.00;69.29
77351;BME280;66420;50.246;14.320;2023-01-29T00:27:05;100871.22;;;-3.08;70.55
77351;BME280;66420;50.246;14.320;2023-01-29T00:29:49;100872.59;;;-3.12;70.52
77351;BME280;66420;50.246;14.320;2023-01-29T00:32:52;100878.84;;;-3.05;71.00
77351;BME280;66420;50.246;14.320;2023-01-29T00:35:38;100871.09;;;-3.00;71.40
77351;BME280;66420;50.246;14.320;2023-01-29T00:38:23;100882.81;;;-3.01;70.24
77351;BME280;66420;50.246;14.320;2023-01-29T00:41:13;100878.47;;;-3.02;71.15
77351;BME280;66420;50.246;14.320;2023-01-29T00:44:17;100867.31;;;-3.05;70.26
77351;BME280;66420;50.246;14.320;2023-01-29T00:47:21;100875.53;;;-3.07;70.90
77351;BME280;66420;50.246;14.320;2023-01-29T00:50:14;100872.66;;;-3.05;71.40
77351;BME280;66420;50.246;14.320;2023-01-29T00:52:59;100866.13;;;-3.03;71.78
77351;BME280;66420;50.246;14.320;2023-01-29T00:55:43;100857.53;;;-2.98;71.68
77351;BME280;66420;50.246;14.320;2023-01-29T00:58:28;100845.16;;;-2.99;71.55
77351;BME280;66420;50.246;14.320;2023-01-29T01:01:18;100834.00;;;-3.03;71.76
77351;BME280;66420;50.246;14.320;2023-01-29T01:04:22;100841.63;;;-3.00;71.65
77351;BME280;66420;50.246;14.320;2023-01-29T01:07:07;100836.91;;;-2.98;72.27
77351;BME280;66420;50.246;14.320;2023-01-29T01:09:51;100844.50;;;-3.01;72.00
77351;BME280;66420;50.246;14.320;2023-01-29T01:12:59;100845.31;;;-3.01;72.14
77351;BME280;66420;50.246;14.320;2023-01-29T01:15:44;100838.50;;;-3.03;72.18
77351;BME280;66420;50.246;14.320;2023-01-29T01:18:29;100843.03;;;-3.04;72.76
77351;BME280;66420;50.246;14.320;2023-01-29T01:21:14;100845.06;;;-3.06;72.42
77351;BME280;66420;50.246;14.320;2023-01-29T01:23:58;100844.22;;;-3.06;72.75
77351;BME280;66420;50.246;14.320;2023-01-29T01:26:42;100845.16;;;-2.99;72.52
77351;BME280;66420;50.246;14.320;2023-01-29T01:29:27;100839.41;;;-2.96;72.74
77351;BME280;66420;50.246;14.320;2023-01-29T01:32:12;100836.47;;;-3.01;72.69
77351;BME280;66420;50.246;14.320;2023-01-29T01:34:56;100845.31;;;-3.01;71.60
77351;BME280;66420;50.246;14.320;2023-01-29T01:37:41;100841.38;;;-3.05;71.74
77351;BME280;66420;50.246;14.320;2023-01-29T01:40:26;100837.28;;;-3.01;71.13
77351;BME280;66420;50.246;14.320;2023-01-29T01:43:10;100837.47;;;-3.02;71.95
77351;BME280;66420;50.246;14.320;2023-01-29T01:45:54;100835.84;;;-3.03;71.87
77351;BME280;66420;50.246;14.320;2023-01-29T01:52:21;100824.84;;;-3.08;71.27
77351;BME280;66420;50.246;14.320;2023-01-29T01:55:07;100826.69;;;-3.09;71.25
77351;BME280;66420;50.246;14.320;2023-01-29T01:58:00;100825.69;;;-3.08;71.77
77351;BME280;66420;50.246;14.320;2023-01-29T02:00:47;100832.69;;;-3.07;72.00
77351;BME280;66420;50.246;14.320;2023-01-29T02:03:35;100827.53;;;-3.08;71.23
77351;BME280;66420;50.246;14.320;2023-01-29T02:06:40;100825.69;;;-3.08;72.04
77351;BME280;66420;50.246;14.320;2023-01-29T02:09:50;100825.13;;;-3.03;70.89
77351;BME280;66420;50.246;14.320;2023-01-29T02:12:37;100820.38;;;-3.01;70.99
77351;BME280;66420;50.246;14.320;2023-01-29T02:15:22;100819.56;;;-3.02;71.29
77351;BME280;66420;50.246;14.320;2023-01-29T02:18:07;100815.47;;;-2.98;71.62
77351;BME280;66420;50.246;14.320;2023-01-29T02:27:18;100821.59;;;-3.04;70.93
77351;BME280;66420;50.246;14.320;2023-01-29T02:30:18;100819.28;;;-3.07;70.41
77351;BME280;66420;50.246;14.320;2023-01-29T02:37:08;100833.06;;;-3.10;70.74
77351;BME280;66420;50.246;14.320;2023-01-29T02:40:22;100837.41;;;-3.09;71.29
77351;BME280;66420;50.246;14.320;2023-01-29T02:46:13;100837.16;;;-3.14;70.39
77351;BME280;66420;50.246;14.320;2023-01-29T02:49:07;100848.25;;;-3.17;70.94
77351;BME280;66420;50.246;14.320;2023-01-29T02:52:08;100858.13;;;-3.18;71.91
77351;BME280;66420;50.246;14.320;2023-01-29T02:55:05;100867.16;;;-3.19;71.15
77351;BME280;66420;50.246;14.320;2023-01-29T02:57:56;100853.50;;;-3.24;70.37
77351;BME280;66420;50.246;14.320;2023-01-29T03:00:46;100840.28;;;-3.25;70.59
77351;BME280;66420;50.246;14.320;2023-01-29T03:03:42;100836.34;;;-3.29;70.77
77351;BME280;66420;50.246;14.320;2023-01-29T03:06:38;100838.00;;;-3.28;70.01
77351;BME280;66420;50.246;14.320;2023-01-29T03:09:29;100834.50;;;-3.29;71.42
77351;BME280;66420;50.246;14.320;2023-01-29T03:12:22;100832.75;;;-3.36;70.10
77351;BME280;66420;50.246;14.320;2023-01-29T03:15:20;100840.63;;;-3.35;70.90
77351;BME280;66420;50.246;14.320;2023-01-29T03:18:11;100839.97;;;-3.37;71.27
77351;BME280;66420;50.246;14.320;2023-01-29T03:21:02;100828.25;;;-3.36;70.18
77351;BME280;66420;50.246;14.320;2023-01-29T03:24:10;100828.59;;;-3.39;70.37
77351;BME280;66420;50.246;14.320;2023-01-29T03:27:15;100825.84;;;-3.45;70.81
77351;BME280;66420;50.246;14.320;2023-01-29T03:30:21;100823.19;;;-3.45;70.43
77351;BME280;66420;50.246;14.320;2023-01-29T03:33:31;100821.91;;;-3.49;70.56
77351;BME280;66420;50.246;14.320;2023-01-29T03:36:28;100819.22;;;-3.49;71.75
77351;BME280;66420;50.246;14.320;2023-01-29T03:39:23;100811.09;;;-3.56;70.85
77351;BME280;66420;50.246;14.320;2023-01-29T03:42:58;100813.03;;;-3.50;70.80
77351;BME280;66420;50.246;14.320;2023-01-29T03:52:07;100835.00;;;-3.54;68.83
77351;BME280;66420;50.246;14.320;2023-01-29T03:55:11;100832.41;;;-3.48;69.15
77351;BME280;66420;50.246;14.320;2023-01-29T04:01:15;100824.47;;;-3.41;69.16
77351;BME280;66420;50.246;14.320;2023-01-29T04:04:13;100832.09;;;-3.38;68.84
77351;BME280;66420;50.246;14.320;2023-01-29T04:07:19;100822.06;;;-3.36;67.67
77351;BME280;66420;50.246;14.320;2023-01-29T04:10:17;100810.97;;;-3.33;68.29
77351;BME280;66420;50.246;14.320;2023-01-29T04:13:06;100813.38;;;-3.38;68.58
77351;BME280;66420;50.246;14.320;2023-01-29T04:15:55;100813.47;;;-3.32;68.28
77351;BME280;66420;50.246;14.320;2023-01-29T04:18:44;100800.66;;;-3.36;68.06
77351;BME280;66420;50.246;14.320;2023-01-29T04:21:29;100817.53;;;-3.36;68.63
77351;BME280;66420;50.246;14.320;2023-01-29T04:24:15;100818.16;;;-3.34;68.24
77351;BME280;66420;50.246;14.320;2023-01-29T04:33:26;100805.44;;;-3.32;67.45
77351;BME280;66420;50.246;14.320;2023-01-29T04:39:43;100804.22;;;-3.29;68.51
77351;BME280;66420;50.246;14.320;2023-01-29T04:42:56;100796.56;;;-3.32;68.53
77351;BME280;66420;50.246;14.320;2023-01-29T04:46:09;100804.72;;;-3.40;68.02
77351;BME280;66420;50.246;14.320;2023-01-29T04:49:09;100806.63;;;-3.34;67.59
77351;BME280;66420;50.246;14.320;2023-01-29T04:58:13;100796.31;;;-3.37;68.04
77351;BME280;66420;50.246;14.320;2023-01-29T05:01:01;100788.28;;;-3.37;67.76
77351;BME280;66420;50.246;14.320;2023-01-29T05:03:49;100786.25;;;-3.35;68.01
77351;BME280;66420;50.246;14.320;2023-01-29T05:06:36;100781.06;;;-3.37;67.63
77351;BME280;66420;50.246;14.320;2023-01-29T05:09:23;100778.41;;;-3.37;67.70
77351;BME280;66420;50.246;14.320;2023-01-29T05:12:10;100784.13;;;-3.40;68.03
77351;BME280;66420;50.246;14.320;2023-01-29T05:15:00;100789.09;;;-3.37;67.77
77351;BME280;66420;50.246;14.320;2023-01-29T05:17:45;100778.00;;;-3.34;68.65
77351;BME280;66420;50.246;14.320;2023-01-29T05:20:32;100774.91;;;-3.37;68.76
77351;BME280;66420;50.246;14.320;2023-01-29T05:23:19;100768.78;;;-3.31;67.64
77351;BME280;66420;50.246;14.320;2023-01-29T05:26:04;100765.09;;;-3.30;68.60
77351;BME280;66420;50.246;14.320;2023-01-29T05:28:49;100761.22;;;-3.28;68.04
77351;BME280;66420;50.246;14.320;2023-01-29T05:31:33;100758.28;;;-3.33;68.25
77351;BME280;66420;50.246;14.320;2023-01-29T05:34:18;100761.97;;;-3.34;68.03
77351;BME280;66420;50.246;14.320;2023-01-29T05:37:03;100758.66;;;-3.36;69.48
77351;BME280;66420;50.246;14.320;2023-01-29T05:39:47;100759.84;;;-3.38;67.71
77351;BME280;66420;50.246;14.320;2023-01-29T05:42:32;100761.97;;;-3.34;68.17
77351;BME280;66420;50.246;14.320;2023-01-29T05:45:17;100760.31;;;-3.35;68.33
77351;BME280;66420;50.246;14.320;2023-01-29T05:48:02;100757.69;;;-3.28;68.35
77351;BME280;66420;50.246;14.320;2023-01-29T05:50:46;100744.50;;;-3.30;68.67
77351;BME280;66420;50.246;14.320;2023-01-29T05:53:32;100737.03;;;-3.34;68.49
77351;BME280;66420;50.246;14.320;2023-01-29T05:56:17;100730.66;;;-3.33;69.21
77351;BME280;66420;50.246;14.320;2023-01-29T05:59:01;100731.06;;;-3.36;66.88
77351;BME280;66420;50.246;14.320;2023-01-29T06:01:46;100720.28;;;-3.43;67.76
77351;BME280;66420;50.246;14.320;2023-01-29T06:04:30;100718.81;;;-3.45;67.73
77351;BME280;66420;50.246;14.320;2023-01-29T06:07:14;100719.81;;;-3.46;67.65
77351;BME280;66420;50.246;14.320;2023-01-29T06:09:59;100724.28;;;-3.53;66.25
77351;BME280;66420;50.246;14.320;2023-01-29T06:12:44;100725.16;;;-3.68;67.13
77351;BME280;66420;50.246;14.320;2023-01-29T06:15:29;100729.09;;;-3.64;67.30
77351;BME280;66420;50.246;14.320;2023-01-29T06:18:13;100725.78;;;-3.66;67.47
77351;BME280;66420;50.246;14.320;2023-01-29T06:21:02;100728.94;;;-3.77;68.71
77351;BME280;66420;50.246;14.320;2023-01-29T06:23:47;100735.19;;;-3.70;67.03
77351;BME280;66420;50.246;14.320;2023-01-29T06:26:31;100726.91;;;-3.75;67.31
77351;BME280;66420;50.246;14.320;2023-01-29T06:29:16;100721.56;;;-3.75;67.09
77351;BME280;66420;50.246;14.320;2023-01-29T06:32:01;100718.44;;;-3.78;66.83
77351;BME280;66420;50.246;14.320;2023-01-29T06:34:45;100728.94;;;-3.77;66.97
77351;BME280;66420;50.246;14.320;2023-01-29T06:37:30;100727.41;;;-3.86;67.51
77351;BME280;66420;50.246;14.320;2023-01-29T06:40:15;100727.41;;;-3.86;68.43
77351;BME280;66420;50.246;14.320;2023-01-29T06:43:00;100736.69;;;-3.82;68.82
77351;BME280;66420;50.246;14.320;2023-01-29T06:45:55;100740.22;;;-3.81;68.72
77351;BME280;66420;50.246;14.320;2023-01-29T06:48:40;100748.03;;;-3.80;68.89
77351;BME280;66420;50.246;14.320;2023-01-29T06:51:25;100752.75;;;-3.82;68.16
77351;BME280;66420;50.246;14.320;2023-01-29T06:54:09;100756.72;;;-3.78;68.84
77351;BME280;66420;50.246;14.320;2023-01-29T06:56:54;100749.97;;;-3.88;67.55
77351;BME280;66420;50.246;14.320;2023-01-29T06:59:39;100764.47;;;-3.83;68.41
77351;BME280;66420;50.246;14.320;2023-01-29T07:02:23;100768.13;;;-3.84;68.99
77351;BME280;66420;50.246;14.320;2023-01-29T07:05:08;100766.47;;;-3.85;68.01
77351;BME280;66420;50.246;14.320;2023-01-29T07:07:53;100775.53;;;-3.86;69.11
77351;BME280;66420;50.246;14.320;2023-01-29T07:10:38;100771.03;;;-3.85;68.23
77351;BME280;66420;50.246;14.320;2023-01-29T07:13:22;100771.19;;;-3.87;68.05
77351;BME280;66420;50.246;14.320;2023-01-29T07:16:07;100774.88;;;-3.88;68.29
77351;BME280;66420;50.246;14.320;2023-01-29T07:18:54;100777.56;;;-3.88;69.57
77351;BME280;66420;50.246;14.320;2023-01-29T07:21:39;100785.28;;;-3.93;68.94
77351;BME280;66420;50.246;14.320;2023-01-29T07:24:23;100795.66;;;-3.90;69.06
77351;BME280;66420;50.246;14.320;2023-01-29T07:27:08;100790.66;;;-3.93;69.45
77351;BME280;66420;50.246;14.320;2023-01-29T07:29:53;100798.09;;;-4.03;67.88
77351;BME280;66420;50.246;14.320;2023-01-29T07:32:37;100798.75;;;-4.01;68.91
77351;BME280;66420;50.246;14.320;2023-01-29T07:35:22;100792.03;;;-3.97;70.24
77351;BME280;66420;50.246;14.320;2023-01-29T07:38:08;100790.84;;;-3.94;69.49
77351;BME280;66420;50.246;14.320;2023-01-29T07:40:53;100804.84;;;-3.92;69.30
77351;BME280;66420;50.246;14.320;2023-01-29T07:43:38;100822.09;;;-3.95;68.67
77351;BME280;66420;50.246;14.320;2023-01-29T07:46:23;100832.78;;;-3.95;68.94
77351;BME280;66420;50.246;14.320;2023-01-29T07:49:07;100838.16;;;-3.95;68.36
77351;BME280;66420;50.246;14.320;2023-01-29T07:51:51;100834.19;;;-3.99;69.26
77351;BME280;66420;50.246;14.320;2023-01-29T07:54:36;100832.97;;;-3.96;70.40
77351;BME280;66420;50.246;14.320;2023-01-29T07:57:21;100837.78;;;-3.92;70.17
77351;BME280;66420;50.246;14.320;2023-01-29T08:00:06;100840.91;;;-3.88;70.14
77351;BME280;66420;50.246;14.320;2023-01-29T08:02:51;100837.78;;;-3.92;69.29
77351;BME280;66420;50.246;14.320;2023-01-29T08:05:36;100846.06;;;-3.87;69.57
77351;BME280;66420;50.246;14.320;2023-01-29T08:08:20;100846.97;;;-3.80;70.08
77351;BME280;66420;50.246;14.320;2023-01-29T08:11:05;100842.75;;;-3.74;69.08
77351;BME280;66420;50.246;14.320;2023-01-29T08:13:49;100845.03;;;-3.71;68.84
77351;BME280;66420;50.246;14.320;2023-01-29T08:16:35;100835.19;;;-3.71;67.93
77351;BME280;66420;50.246;14.320;2023-01-29T08:19:19;100843.03;;;-3.69;67.30
77351;BME280;66420;50.246;14.320;2023-01-29T08:22:04;100844.16;;;-3.64;68.70
77351;BME280;66420;50.246;14.320;2023-01-29T08:24:49;100837.69;;;-3.54;68.27
77351;BME280;66420;50.246;14.320;2023-01-29T08:27:34;100830.03;;;-3.58;67.45
77351;BME280;66420;50.246;14.320;2023-01-29T08:30:18;100826.03;;;-3.47;68.05
77351;BME280;66420;50.246;14.320;2023-01-29T08:33:03;100815.41;;;-3.40;68.18
77351;BME280;66420;50.246;14.320;2023-01-29T08:35:49;100805.72;;;-3.41;67.09
77351;BME280;66420;50.246;14.320;2023-01-29T08:38:34;100809.25;;;-3.41;67.44
77351;BME280;66420;50.246;14.320;2023-01-29T08:41:18;100807.28;;;-3.32;68.59
77351;BME280;66420;50.246;14.320;2023-01-29T08:44:03;100808.16;;;-3.25;68.25
77351;BME280;66420;50.246;14.320;2023-01-29T08:46:47;100818.53;;;-3.22;66.39
77351;BME280;66420;50.246;14.320;2023-01-29T08:49:32;100822.34;;;-3.10;68.23
77351;BME280;66420;50.246;14.320;2023-01-29T08:52:16;100820.34;;;-3.08;67.36
77351;BME280;66420;50.246;14.320;2023-01-29T08:55:00;100814.16;;;-3.08;66.99
77351;BME280;66420;50.246;14.320;2023-01-29T08:57:45;100807.84;;;-3.01;66.06
77351;BME280;66420;50.246;14.320;2023-01-29T09:00:31;100817.41;;;-2.92;67.48
77351;BME280;66420;50.246;14.320;2023-01-29T09:03:16;100814.59;;;-2.84;65.85
77351;BME280;66420;50.246;14.320;2023-01-29T09:06:01;100814.41;;;-2.82;65.93
77351;BME280;66420;50.246;14.320;2023-01-29T09:08:45;100817.78;;;-2.74;66.36
77351;BME280;66420;50.246;14.320;2023-01-29T09:11:31;100801.97;;;-2.69;64.52
77351;BME280;66420;50.246;14.320;2023-01-29T09:14:15;100790.84;;;-2.65;64.56
77351;BME280;66420;50.246;14.320;2023-01-29T09:17:00;100792.78;;;-2.59;64.92
77351;BME280;66420;50.246;14.320;2023-01-29T09:19:44;100792.44;;;-2.50;64.42
77351;BME280;66420;50.246;14.320;2023-01-29T09:22:29;100794.28;;;-2.50;64.36
77351;BME280;66420;50.246;14.320;2023-01-29T09:25:13;100787.53;;;-2.46;64.44
77351;BME280;66420;50.246;14.320;2023-01-29T09:27:58;100786.50;;;-2.45;64.20
77351;BME280;66420;50.246;14.320;2023-01-29T09:30:43;100791.34;;;-2.34;63.91
77351;BME280;66420;50.246;14.320;2023-01-29T09:33:28;100789.53;;;-2.27;63.13
77351;BME280;66420;50.246;14.320;2023-01-29T09:36:14;100808.03;;;-2.11;63.90
77351;BME280;66420;50.246;14.320;2023-01-29T09:38:58;100807.22;;;-2.05;62.56
77351;BME280;66420;50.246;14.320;2023-01-29T09:44:54;100807.22;;;-2.05;62.98
77351;BME280;66420;50.246;14.320;2023-01-29T09:47:42;100797.91;;;-2.09;62.36
77351;BME280;66420;50.246;14.320;2023-01-29T09:50:38;100796.50;;;-2.05;63.07
77351;BME280;66420;50.246;14.320;2023-01-29T09:53:33;100771.97;;;-2.02;62.18
77351;BME280;66420;50.246;14.320;2023-01-29T09:56:21;100766.81;;;-1.97;62.38
77351;BME280;66420;50.246;14.320;2023-01-29T09:59:13;100757.34;;;-1.99;62.40
77351;BME280;66420;50.246;14.320;2023-01-29T10:08:48;100738.28;;;-2.11;63.06
77351;BME280;66420;50.246;14.320;2023-01-29T10:12:04;100728.81;;;-2.07;62.62
77351;BME280;66420;50.246;14.320;2023-01-29T10:18:36;100725.38;;;-1.88;62.93
77351;BME280;66420;50.246;14.320;2023-01-29T10:25:03;100739.09;;;-1.69;62.74
77351;BME280;66420;50.246;14.320;2023-01-29T10:27:57;100739.94;;;-1.69;62.27
77351;BME280;66420;50.246;14.320;2023-01-29T10:30:48;100733.53;;;-1.68;62.55
77351;BME280;66420;50.246;14.320;2023-01-29T10:33:50;100722.38;;;-1.65;62.44
77351;BME280;66420;50.246;14.320;2023-01-29T10:39:26;100712.84;;;-1.74;63.12
77351;BME280;66420;50.246;14.320;2023-01-29T10:42:27;100707.75;;;-1.56;62.45
77351;BME280;66420;50.246;14.320;2023-01-29T10:45:28;100687.78;;;-1.40;61.46
77351;BME280;66420;50.246;14.320;2023-01-29T10:48:33;100677.47;;;-1.43;62.99
77351;BME280;66420;50.246;14.320;2023-01-29T10:51:53;100664.66;;;-1.48;61.97
77351;BME280;66420;50.246;14.320;2023-01-29T10:54:47;100658.25;;;-1.40;62.28
77351;BME280;66420;50.246;14.320;2023-01-29T11:00:27;100652.06;;;-1.27;60.08
77351;BME280;66420;50.246;14.320;2023-01-29T11:03:17;100646.50;;;-1.13;62.43
77351;BME280;66420;50.246;14.320;2023-01-29T11:15:21;100641.13;;;-1.13;61.98
77351;BME280;66420;50.246;14.320;2023-01-29T11:18:10;100656.84;;;-1.03;61.52
77351;BME280;66420;50.246;14.320;2023-01-29T11:21:02;100660.97;;;-1.01;61.65
77351;BME280;66420;50.246;14.320;2023-01-29T11:23:47;100660.38;;;-1.03;61.84
77351;BME280;66420;50.246;14.320;2023-01-29T11:26:35;100657.69;;;-1.03;62.09
77351;BME280;66420;50.246;14.320;2023-01-29T11:29:42;100645.69;;;-1.00;62.41
77351;BME280;66420;50.246;14.320;2023-01-29T11:32:33;100647.34;;;-1.06;61.52
77351;BME280;66420;50.246;14.320;2023-01-29T11:35:23;100641.97;;;-1.06;62.69
77351;BME280;66420;50.246;14.320;2023-01-29T11:41:09;100623.78;;;-0.97;61.68
77351;BME280;66420;50.246;14.320;2023-01-29T11:43:57;100615.50;;;-0.96;62.13
77351;BME280;66420;50.246;14.320;2023-01-29T11:46:44;100611.78;;;-0.95;62.16
77351;BME280;66420;50.246;14.320;2023-01-29T11:49:31;100604.34;;;-0.93;62.81
77351;BME280;66420;50.246;14.320;2023-01-29T11:52:19;100595.88;;;-0.90;63.07
77351;BME280;66420;50.246;14.320;2023-01-29T11:55:24;100585.31;;;-0.84;62.36
77351;BME280;66420;50.246;14.320;2023-01-29T11:58:21;100584.50;;;-0.92;61.64
77351;BME280;66420;50.246;14.320;2023-01-29T12:01:09;100574.56;;;-0.91;62.53
77351;BME280;66420;50.246;14.320;2023-01-29T12:03:54;100574.19;;;-0.88;63.04
77351;BME280;66420;50.246;14.320;2023-01-29T12:06:43;100570.44;;;-0.80;62.34
77351;BME280;66420;50.246;14.320;2023-01-29T12:09:31;100570.00;;;-0.77;61.85
77351;BME280;66420;50.246;14.320;2023-01-29T12:12:29;100561.31;;;-0.66;62.36
77351;BME280;66420;50.246;14.320;2023-01-29T12:15:21;100561.94;;;-0.64;62.37
77351;BME280;66420;50.246;14.320;2023-01-29T12:18:12;100562.94;;;-0.59;62.87
77351;BME280;66420;50.246;14.320;2023-01-29T12:21:02;100573.69;;;-0.59;61.39
77351;BME280;66420;50.246;14.320;2023-01-29T12:26:54;100583.84;;;-0.61;62.19
77351;BME280;66420;50.246;14.320;2023-01-29T12:32:55;100561.69;;;-0.56;62.60
77351;BME280;66420;50.246;14.320;2023-01-29T12:39:15;100544.69;;;-0.43;61.88
77351;BME280;66420;50.246;14.320;2023-01-29T12:42:09;100531.88;;;-0.48;62.68
77351;BME280;66420;50.246;14.320;2023-01-29T12:44:59;100510.56;;;-0.43;61.85
77351;BME280;66420;50.246;14.320;2023-01-29T12:47:52;100513.03;;;-0.41;61.46
77351;BME280;66420;50.246;14.320;2023-01-29T12:50:39;100509.94;;;-0.45;63.00
77351;BME280;66420;50.246;14.320;2023-01-29T12:53:32;100511.19;;;-0.48;62.84
77351;BME280;66420;50.246;14.320;2023-01-29T12:56:25;100524.00;;;-0.50;61.34
77351;BME280;66420;50.246;14.320;2023-01-29T12:59:19;100526.09;;;-0.52;62.30
77351;BME280;66420;50.246;14.320;2023-01-29T13:04:58;100507.69;;;-0.48;62.38
77351;BME280;66420;50.246;14.320;2023-01-29T13:08:18;100509.28;;;-0.40;62.42
77351;BME280;66420;50.246;14.320;2023-01-29T13:11:14;100500.16;;;-0.33;62.64
77351;BME280;66420;50.246;14.320;2023-01-29T13:14:05;100497.88;;;-0.36;62.63
77351;BME280;66420;50.246;14.320;2023-01-29T13:17:01;100494.59;;;-0.38;62.15
77351;BME280;66420;50.246;14.320;2023-01-29T13:19:51;100492.16;;;-0.46;62.59
77351;BME280;66420;50.246;14.320;2023-01-29T13:22:38;100490.91;;;-0.50;62.66
77351;BME280;66420;50.246;14.320;2023-01-29T13:25:24;100482.25;;;-0.52;63.99
77351;BME280;66420;50.246;14.320;2023-01-29T13:28:18;100466.91;;;-0.45;63.26
77351;BME280;66420;50.246;14.320;2023-01-29T13:34:10;100482.41;;;-0.40;62.61
77351;BME280;66420;50.246;14.320;2023-01-29T13:37:00;100481.94;;;-0.31;64.10
77351;BME280;66420;50.246;14.320;2023-01-29T13:39:49;100486.28;;;-0.30;62.66
77351;BME280;66420;50.246;14.320;2023-01-29T13:42:46;100480.91;;;-0.36;62.72
77351;BME280;66420;50.246;14.320;2023-01-29T13:45:41;100484.22;;;-0.28;62.85
77351;BME280;66420;50.246;14.320;2023-01-29T13:48:28;100482.97;;;-0.32;62.26
77351;BME280;66420;50.246;14.320;2023-01-29T13:51:21;100483.16;;;-0.27;62.66
77351;BME280;66420;50.246;14.320;2023-01-29T13:54:16;100487.06;;;-0.23;63.19
77351;BME280;66420;50.246;14.320;2023-01-29T13:57:04;100463.66;;;-0.22;62.75
77351;BME280;66420;50.246;14.320;2023-01-29T13:59:50;100469.50;;;-0.25;62.88
77351;BME280;66420;50.246;14.320;2023-01-29T14:02:36;100459.38;;;-0.30;62.21
77351;BME280;66420;50.246;14.320;2023-01-29T14:13:59;100428.22;;;-0.13;62.05
77351;BME280;66420;50.246;14.320;2023-01-29T14:16:44;100438.41;;;-0.15;62.54
77351;BME280;66420;50.246;14.320;2023-01-29T14:19:29;100431.19;;;-0.21;62.32
77351;BME280;66420;50.246;14.320;2023-01-29T14:22:32;100443.53;;;-0.13;63.40
77351;BME280;66420;50.246;14.320;2023-01-29T14:25:18;100441.25;;;-0.10;62.84
77351;BME280;66420;50.246;14.320;2023-01-29T14:28:13;100448.09;;;-0.14;63.60
77351;BME280;66420;50.246;14.320;2023-01-29T14:31:00;100444.81;;;-0.16;63.20
77351;BME280;66420;50.246;14.320;2023-01-29T14:33:46;100442.72;;;-0.14;62.81
77351;BME280;66420;50.246;14.320;2023-01-29T14:36:39;100447.69;;;-0.11;63.49
77351;BME280;66420;50.246;14.320;2023-01-29T14:39:33;100432.94;;;-0.08;62.83
77351;BME280;66420;50.246;14.320;2023-01-29T14:45:29;100442.69;;;-0.07;63.06
77351;BME280;66420;50.246;14.320;2023-01-29T14:48:37;100446.38;;;-0.02;62.88
77351;BME280;66420;50.246;14.320;2023-01-29T14:51:24;100441.41;;;-0.05;61.81
77351;BME280;66420;50.246;14.320;2023-01-29T14:54:19;100436.03;;;-0.05;62.64
77351;BME280;66420;50.246;14.320;2023-01-29T14:57:11;100427.75;;;-0.03;63.53
77351;BME280;66420;50.246;14.320;2023-01-29T15:00:03;100425.72;;;-0.08;63.21
77351;BME280;66420;50.246;14.320;2023-01-29T15:02:51;100426.16;;;-0.11;63.71
77351;BME280;66420;50.246;14.320;2023-01-29T15:05:37;100424.72;;;-0.13;63.50
77351;BME280;66420;50.246;14.320;2023-01-29T15:08:26;100419.97;;;-0.18;62.79
77351;BME280;66420;50.246;14.320;2023-01-29T15:11:19;100425.34;;;-0.18;64.39
77351;BME280;66420;50.246;14.320;2023-01-29T15:14:28;100431.16;;;-0.14;64.52
77351;BME280;66420;50.246;14.320;2023-01-29T15:20:30;100420.88;;;-0.24;64.23
77351;BME280;66420;50.246;14.320;2023-01-29T15:23:26;100429.19;;;-0.32;65.01
77351;BME280;66420;50.246;14.320;2023-01-29T15:26:22;100415.41;;;-0.42;65.28
77351;BME280;66420;50.246;14.320;2023-01-29T15:29:21;100415.41;;;-0.42;65.63
77351;BME280;66420;50.246;14.320;2023-01-29T15:32:12;100406.53;;;-0.49;65.94
77351;BME280;66420;50.246;14.320;2023-01-29T15:34:59;100410.25;;;-0.50;66.03
77351;BME280;66420;50.246;14.320;2023-01-29T15:38:00;100402.03;;;-0.55;65.94
77351;BME280;66420;50.246;14.320;2023-01-29T15:41:02;100405.59;;;-0.61;66.10
77351;BME280;66420;50.246;14.320;2023-01-29T15:43:49;100396.06;;;-0.64;65.74
77351;BME280;66420;50.246;14.320;2023-01-29T15:46:35;100390.94;;;-0.72;65.26
77351;BME280;66420;50.246;14.320;2023-01-29T15:52:22;100385.03;;;-0.87;66.08
77351;BME280;66420;50.246;14.320;2023-01-29T15:55:11;100381.94;;;-0.91;66.58
77351;BME280;66420;50.246;14.320;2023-01-29T15:57:58;100388.78;;;-0.95;66.81
77351;BME280;66420;50.246;14.320;2023-01-29T16:00:51;100386.53;;;-0.98;67.12
77351;BME280;66420;50.246;14.320;2023-01-29T16:03:37;100389.81;;;-0.96;67.73
77351;BME280;66420;50.246;14.320;2023-01-29T16:06:22;100395.63;;;-0.99;67.92
77351;BME280;66420;50.246;14.320;2023-01-29T16:09:10;100403.50;;;-1.04;67.67
77351;BME280;66420;50.246;14.320;2023-01-29T16:11:59;100400.81;;;-1.04;68.01
77351;BME280;66420;50.246;14.320;2023-01-29T16:14:44;100393.59;;;-1.10;67.82
77351;BME280;66420;50.246;14.320;2023-01-29T16:17:32;100410.13;;;-1.13;67.92
77351;BME280;66420;50.246;14.320;2023-01-29T16:20:29;100406.03;;;-1.22;68.67
77351;BME280;66420;50.246;14.320;2023-01-29T16:23:21;100401.88;;;-1.18;68.50
77351;BME280;66420;50.246;14.320;2023-01-29T16:26:13;100408.53;;;-1.27;68.66
77351;BME280;66420;50.246;14.320;2023-01-29T16:29:07;100403.41;;;-1.35;69.69